Aérodrome :
LOGIN :

S'inscrire | Disclaimer

   EN    FR    IT 

 










Légende :    VFR   VFR Marginal   IFR   IFR Intensif   IFR Très Intensif
Visi : 
Plafond : 
>= 8 km
>= 3000ft
5 à 8 km
1000 à 3000 ft
1500m à 5 km
500 à 1000 ft
800 à 1500m
200 à 500 ft
< 800m
< 200 ft
Symboles :   Orages  Brouillard  Fortes neiges  Fortes précipitations  Vent > 20 kt
SIGMETs :   Divers  Orages  Givrage  Turbulence  Onde Orograph.  Cendres Volcan.






- Altitude de l'aérodrome : 245 ft
- Code IATA : BIQ


LFBZ - Biarritz

DERNIER METAR :
  • 090930Z AUTO VRB02KT 9999 BKN032 BKN039 BKN052 10/03 Q1022 TEMPO 3000 -RA BKN014

METARs EXPIRÉS :
  • 090900Z AUTO 16006KT 9999 FEW035 OVC080 10/05 Q1022 TEMPO 3000 -RA BKN014
  • 090830Z AUTO 16003KT 130V200 CAVOK 08/05 Q1022 TEMPO 3000 -RA BKN014
  • 090800Z AUTO 15002KT 9999 FEW035 OVC082 08/04 Q1022 TEMPO 3000 -RA BKN014
  • 090730Z AUTO 17002KT 9999 BKN034 BKN041 BKN047 07/05 Q1022 TEMPO 3000 -RA BKN014
  • 090700Z AUTO 17003KT 9999 SCT034 BKN041 BKN047 07/04 Q1021 TEMPO 3000 -RA BKN014

TAF TAF LFBZ
Valide du 09 à 06h jusqu'au 10 à 06h UTC


090500Z 0906/1006 29005KT 9999 BKN030
TEMPO 0906/0914 3000 -RA BKN014
BECMG 0918/0920 CAVOK



MET'MAP, la Météo Aéronautique d'un coup d'oeil ! - Copyright ORBIFLY Décembre 2007 - Disclaimer

ORBIFLY MET'MAP TEAM :

Programmation & Développement : Alexandra Zaïnal
Sur une idée originale de : Baudouin d'Aumeries
Assistance à la programmation : Marc-Olivier Méhu
Soutien technique & logistique : Manuel Goepfert

Contact : metmap@orbifly.com




SOURCES & CREDITS :

   NOAA